Pineville, South Carolina
Current Conditions -  °F | °C
As of 10:15 PM on Tuesday 21 Oct 2014 (Local Time) from KMNI Reporting Station
Scattered Clouds Scattered Clouds  
Wind Chill: 16°   Ceiling: Unl
Heat Index: 16°   Visibility: 10mi
Dew Point: 16°   Wind: 0mph
Humidity: 100%   Direction: NA
Pressure: 29.92"   Gusts: NA
Location:  33.43°N, 80.02°W
Report Text: KMNI 220215Z AUTO 00000KT 10SM SCT065 SCT075 16/16 A2992 RMK AO2
Loading
Personal Weather Stations






























Interactive Weather Map
Tropical Storm Tracking
New forecast layout! Learn more

10-Day Weather Forecast

Advertisements
Track Severe Weather on mobile